Saturday, August 18, 2018, 1:58 PM GMT
Back to Local

CYKF, Waterloo Well

Location: , , Canada Lat: 43.467
Local Time: 1:58 PM GMT (13:58 GMT) Lon: -80.383
Time Zone: GMT Elev: 1040 ft

Show me the last for .
Show Decoded

2018-08-18 13:00 METAR CYKF 181300Z AUTO 05008KT 9SM CLR 20/17 A2999 RMK SLP152 DENSITY ALT
                 1800FT =
2018-08-18 12:00 METAR CYKF 181200Z AUTO 02003KT 9SM CLR 19/18 A2998 RMK SLP149 DENSITY ALT
                 1700FT =
2018-08-18 11:00 METAR CYKF 181100Z AUTO 36004KT 9SM CLR 18/18 A2996 RMK SLP144 DENSITY ALT
                 1600FT =
2018-08-18 10:00 METAR CYKF 181000Z AUTO 36004KT 9SM CLR 18/18 A2995 RMK SLP141 DENSITY ALT
                 1600FT =
2018-08-18 09:00 METAR CYKF 180900Z AUTO 02004KT 340V050 9SM FEW090 BKN170 BKN250 19/18 A2994 RMK
                 SLP137 DENSITY ALT 1700FT =
2018-08-18 08:00 METAR CYKF 180800Z AUTO 03005KT 9SM FEW100 BKN150 BKN180 19/18 A2993 RMK SLP131
                 DENSITY ALT 1800FT =
2018-08-18 07:40 METAR CYKF 180740Z AUTO 02004KT 9SM BKN100 BKN130 OVC150 19/19 A2993 RMK SLP131
                 DENSITY ALT 1800FT =
2018-08-18 07:20 METAR CYKF 180720Z AUTO 36004KT 9SM -RA SCT085 SCT110 BKN130 19/19 A2993 RMK
                 SLP131 DENSITY ALT 1700FT =
2018-08-18 07:00 METAR CYKF 180700Z AUTO VRB02KT 9SM FEW070 OVC082 20/19 A2993 RMK SLP131 DENSITY
                 ALT 1800FT =
2018-08-18 06:00 METAR CYKF 180600Z AUTO 03004KT 9SM FEW020 SCT027 BKN036 OVC047 20/19 A2993 RMK
                 SLP131 DENSITY ALT 1800FT =
2018-08-18 05:50 METAR CYKF 180550Z AUTO 36003KT 9SM SCT020 OVC036 20/19 A2993 RMK SLP130 DENSITY
                 ALT 1800FT =
2018-08-18 05:45 METAR CYKF 180545Z AUTO 36003KT 330V040 9SM BKN020 BKN034 OVC140 20/20 A2993 RMK
                 SLP130 DENSITY ALT 1800FT =
2018-08-18 05:00 METAR CYKF 180500Z AUTO 36003KT 9SM -RA BKN018 BKN100 OVC120 20/19 A2993 RMK
                 SLP130 DENSITY ALT 1800FT =
2018-08-18 04:47 METAR CYKF 180447Z AUTO 36004KT 350V050 9SM RA BKN016 BKN080 BKN094 OVC120 20/19
                 A2992 RMK SLP129 DENSITY ALT 1800FT =
2018-08-18 04:33 METAR CYKF 180433Z AUTO VRB02KT 6SM RA BR SCT080 BKN091 OVC120 20/19 A2993 RMK
                 LTNG DIST S SLP130 DENSITY ALT 1800FT =
2018-08-18 04:00 METAR CYKF 180400Z AUTO VRB02KT 4SM RA BR FEW006 BKN080 OVC094 20/19 A2993 RMK
                 SLP132 DENSITY ALT 1800FT =
2018-08-18 03:46 METAR CYKF 180346Z AUTO 12004KT 4SM RA BR SCT008 BKN036 BKN065 OVC086 20/19
                 A2994 RMK SLP135 DENSITY ALT 1800FT =
2018-08-18 03:43 METAR CYKF 180343Z AUTO 12004KT 4SM RA VCTS BR SCT008 BKN036 BKN065 OVC091 20/19
                 A2994 RMK SLP136 DENSITY ALT 1800FT =
2018-08-18 03:38 METAR CYKF 180338Z AUTO 13003KT 3SM RA VCTS BR SCT004 BKN013 BKN036 OVC065 20/20
                 A2994 RMK SLP136 DENSITY ALT 1800FT =
2018-08-18 03:31 METAR CYKF 180331Z AUTO 15003KT 100V210 2SM RA VCTS BR SCT006 BKN013 OVC028
                 20/20 A2994 RMK SLP136 DENSITY ALT 1800FT =
2018-08-18 03:30 METAR CYKF 180330Z AUTO 15003KT 090V210 1 1/2SM RA VCTS BR SCT006 BKN013 OVC028
                 20/20 A2994 RMK SLP135 DENSITY ALT 1800FT =
2018-08-18 03:27 METAR CYKF 180327Z AUTO 00000KT 1 1/2SM +RA VCTS BR SCT006 SCT010 BKN017 OVC026
                 20/20 A2994 RMK LTNG DIST SW SLP135 DENSITY ALT 1800FT =
2018-08-18 03:26 METAR CYKF 180326Z AUTO 00000KT 1 1/4SM +RA VCTS BR SCT006 SCT010 SCT019 OVC026
                 20/20 A2994 RMK LTNG DIST SW SLP135 DENSITY ALT 1800FT =
2018-08-18 03:18 METAR CYKF 180318Z AUTO VRB04KT 1 1/4SM +TSRA BR FEW006 SCT012 OVC026 20/20
                 A2994 RMK LTNG DIST S SW SLP136 DENSITY ALT 1800FT =
2018-08-18 03:02 METAR CYKF 180302Z AUTO 11004KT 340V130 1SM +TSRA BR BKN024 OVC030 21/20 A2994
                 RMK SLP135 DENSITY ALT 1900FT =
2018-08-18 03:01 METAR CYKF 180301Z AUTO 10004KT 340V120 1SM +TSRA BR BKN027 OVC032 21/20 A2994
                 RMK SLP135 DENSITY ALT 1900FT =
2018-08-18 03:00 METAR CYKF 180300Z AUTO 07003KT 330V100 1 1/4SM +RA VCTS BR BKN027 OVC032 21/20
                 A2994 RMK SLP135 DENSITY ALT 1900FT =
2018-08-18 02:58 METAR CYKF 180258Z AUTO 04003KT 280V070 1 3/4SM +RA VCTS BR BKN027 OVC032 21/20
                 A2994 RMK SLP135 DENSITY ALT 1900FT =
2018-08-18 02:55 METAR CYKF 180255Z AUTO VRB02KT 2 1/2SM +RA VCTS BR OVC029 21/20 A2994 RMK
                 SLP135 DENSITY ALT 1900FT =
2018-08-18 02:49 METAR CYKF 180249Z AUTO 00000KT 5SM +RA VCTS BR BKN027 OVC032 21/20 A2993 RMK
                 SLP133 DENSITY ALT 1900FT =
2018-08-18 02:48 METAR CYKF 180248Z AUTO 00000KT 5SM RA VCTS BR BKN027 OVC032 21/20 A2993 RMK
                 SLP133 DENSITY ALT 1900FT =
2018-08-18 02:47 METAR CYKF 180247Z AUTO 00000KT 6SM RA VCTS BR OVC029 21/20 A2993 RMK SLP133
                 DENSITY ALT 1900FT =
2018-08-18 02:29 METAR CYKF 180229Z AUTO 07003KT 9SM -RA BKN027 OVC045 21/20 A2993 RMK SLP130
                 DENSITY ALT 1900FT =
2018-08-18 02:24 METAR CYKF 180224Z AUTO 06004KT 9SM BKN027 OVC034 21/20 A2993 RMK SLP130 DENSITY
                 ALT 2000FT =
2018-08-18 02:21 METAR CYKF 180221Z AUTO 05004KT 9SM -RA BKN027 OVC034 21/20 A2993 RMK SLP130
                 DENSITY ALT 2000FT =
2018-08-18 02:00 METAR CYKF 180200Z AUTO 04004KT 9SM -RA OVC022 22/21 A2993 RMK SLP131 DENSITY
                 ALT 2000FT =
2018-08-18 01:57 METAR CYKF 180157Z AUTO 04004KT 9SM -RA OVC022 22/21 A2993 RMK SLP133 DENSITY
                 ALT 2000FT =
2018-08-18 01:15 METAR CYKF 180115Z AUTO VRB02KT 9SM SCT010 BKN022 BKN034 OVC055 22/21 A2993 RMK
                 SLP133 DENSITY ALT 2000FT =
2018-08-18 01:00 METAR CYKF 180100Z AUTO 36004KT 9SM SCT036 BKN055 OVC120 22/21 A2993 RMK SLP130
                 DENSITY ALT 2000FT =
2018-08-18 00:00 METAR CYKF 180000Z AUTO 01002KT 9SM BKN029 OVC130 22/21 A2991 RMK SLP124 DENSITY
                 ALT 2100FT =
2018-08-17 23:27 METAR CYKF 172327Z AUTO 36004KT 9SM FEW025 SCT060 OVC120 22/21 A2990 RMK SLP123
                 DENSITY ALT 2100FT =
2018-08-17 23:00 METAR CYKF 172300Z AUTO 01005KT 9SM -RA FEW042 BKN055 BKN069 OVC120 23/21 A2991
                 RMK SLP124 DENSITY ALT 2100FT =
2018-08-17 22:20 METAR CYKF 172220Z AUTO 33003KT 9SM -RA BKN070 BKN093 OVC110 23/21 A2990 RMK
                 LTNG DIST E SE SLP122 DENSITY ALT 2200FT =
2018-08-17 22:07 METAR CYKF 172207Z AUTO 33006KT 9SM -RA VCTS BKN070 OVC180 23/21 A2990 RMK LTNG
                 DIST NE SLP121 DENSITY ALT 2200FT =
2018-08-17 22:04 METAR CYKF 172204Z AUTO 32006KT 9SM VCTS BKN070 OVC180 24/21 A2990 RMK LTNG DIST
                 NE SLP121 DENSITY ALT 2300FT =
2018-08-17 22:00 METAR CYKF 172200Z AUTO 33006KT 9SM BKN070 OVC180 24/21 A2990 RMK LTNG DIST NE
                 SLP121 DENSITY ALT 2300FT =
2018-08-17 21:00 METAR CYKF 172100Z AUTO 27011KT 9SM SCT027 BKN060 OVC073 26/21 A2988 RMK LTNG
                 DIST N SLP115 DENSITY ALT 2500FT =
2018-08-17 20:00 METAR CYKF 172000Z AUTO 25012KT 9SM BKN027 BKN036 BKN043 27/21 A2988 RMK SLP114
                 DENSITY ALT 2600FT =
2018-08-17 19:00 METAR CYKF 171900Z AUTO 27009KT 9SM FEW029 SCT039 BKN050 BKN090 27/22 A2989 RMK
                 SLP116 DENSITY ALT 2600FT =
2018-08-17 18:37 METAR CYKF 171837Z AUTO 29010KT 240V300 9SM SCT029 SCT045 SCT050 OVC090 27/21
                 A2989 RMK SLP117 DENSITY ALT 2600FT =
2018-08-17 18:22 METAR CYKF 171822Z AUTO 26009KT 9SM -RA FEW026 SCT032 BKN050 OVC090 26/22 A2989
                 RMK SLP117 DENSITY ALT 2500FT =
2018-08-17 18:00 METAR CYKF 171800Z AUTO 27011KT 9SM FEW026 SCT042 BKN090 26/21 A2989 RMK SLP116
                 DENSITY ALT 2500FT =
2018-08-17 17:00 METAR CYKF 171700Z AUTO 28005KT 9SM SCT015 SCT021 BKN032 OVC049 25/22 A2989 RMK
                 SLP116 DENSITY ALT 2400FT =
2018-08-17 16:53 METAR CYKF 171653Z AUTO 27007KT 9SM SCT015 SCT020 BKN029 BKN049 25/22 A2989 RMK
                 SLP116 DENSITY ALT 2400FT =
2018-08-17 16:52 METAR CYKF 171652Z AUTO 28006KT 9SM BKN018 BKN029 BKN049 25/22 A2989 RMK SLP116
                 DENSITY ALT 2400FT =
2018-08-17 16:34 METAR CYKF 171634Z AUTO 24008KT 9SM -RA SCT016 BKN021 BKN027 OVC036 24/22 A2989
                 RMK SLP119 DENSITY ALT 2300FT =
2018-08-17 16:19 METAR CYKF 171619Z AUTO 22009KT 9SM -RA FEW015 SCT020 BKN027 OVC036 25/22 A2989
                 RMK SLP120 DENSITY ALT 2400FT =
2018-08-17 16:00 METAR CYKF 171600Z AUTO 21009KT 9SM BKN015 BKN022 OVC038 25/22 A2990 RMK SLP121
                 DENSITY ALT 2400FT =
2018-08-17 15:29 METAR CYKF 171529Z AUTO 21008KT 9SM SCT011 SCT018 BKN024 OVC039 26/23 A2990 RMK
                 SLP122 DENSITY ALT 2500FT =
2018-08-17 15:28 METAR CYKF 171528Z AUTO 21008KT 9SM FEW011 SCT016 BKN026 BKN036 26/23 A2990 RMK
                 SLP122 DENSITY ALT 2500FT =
2018-08-17 15:00 METAR CYKF 171500Z AUTO 20008KT 9SM SCT009 BKN013 BKN018 OVC040 24/23 A2991 RMK
                 SLP126 DENSITY ALT 2200FT =
2018-08-17 14:51 METAR CYKF 171451Z AUTO 19005KT 9SM SCT011 BKN018 OVC028 23/22 A2992 RMK SLP127
                 DENSITY ALT 2200FT =
2018-08-17 14:48 METAR CYKF 171448Z AUTO 19005KT 6SM -RA BR SCT011 BKN018 BKN025 OVC030 23/22
                 A2992 RMK SLP128 DENSITY ALT 2200FT =
2018-08-17 14:44 METAR CYKF 171444Z AUTO 20005KT 4SM -RA BR SCT011 BKN020 OVC028 23/22 A2992 RMK
                 SLP129 DENSITY ALT 2100FT =
2018-08-17 14:37 METAR CYKF 171437Z AUTO 21004KT 3SM -RA BR SCT011 SCT016 OVC030 23/22 A2992 RMK
                 SLP129 DENSITY ALT 2100FT =
2018-08-17 14:28 METAR CYKF 171428Z AUTO 20004KT 5SM RA BR SCT011 BKN023 BKN030 OVC060 23/22
                 A2992 RMK SLP129 DENSITY ALT 2100FT =
2018-08-17 14:23 METAR CYKF 171423Z AUTO 18005KT 5SM RA BR SCT025 BKN030 BKN042 OVC060 23/22
                 A2992 RMK SLP129 DENSITY ALT 2100FT =
2018-08-17 14:19 METAR CYKF 171419Z AUTO 20007KT 6SM -RA BR FEW018 BKN030 BKN042 OVC060 23/22
                 A2992 RMK SLP129 DENSITY ALT 2200FT =
2018-08-17 14:00 METAR CYKF 171400Z AUTO 20007KT 9SM FEW009 SCT018 BKN027 BKN034 24/22 A2993 RMK
                 SLP132 DENSITY ALT 2300FT =

Support USWX by starting your Amazon purchase here.